This is the latest recevied weather packets stored in our database for station/object BMCB-10. If no packets are shown the sender has not sent any weather packets the latest 10 day(s).
| Time | Temp. | Humidity | Pressure | Rain* | Wind** | Luminosity | Snow |
|---|---|---|---|---|---|---|---|
| 1777354253 | 3.33° C | 10% | 1019.7 hPa | 0 mm | - | - | - |
| 1777351257 | 3.33° C | 10% | 1019.6 hPa | 0 mm | - | - | - |
| 1777350059 | 3.33° C | 10% | 1019.6 hPa | 0 mm | - | - | - |
| 1777347056 | 3.33° C | 10% | 1020 hPa | 0 mm | - | - | - |
| 1777338655 | 3.89° C | 98% | 1020.3 hPa | 0 mm | - | 0 W/m² | - |
| 1777335054 | 3.89° C | 98% | 1020.5 hPa | 0 mm | - | 0 W/m² | - |
| 1777331460 | 3.89° C | 97% | 1020.4 hPa | 0 mm | - | 0 W/m² | - |
| 1777327264 | 4.44° C | 94% | 1020.4 hPa | 0 mm | - | 0 W/m² | - |
| 1777326064 | 5° C | 92% | 1020.4 hPa | 0 mm | - | 0 W/m² | - |
| 1777324866 | 5.56° C | 91% | 1020.5 hPa | 0 mm | - | 0 W/m² | - |
| 1777321277 | 6.67° C | 86% | 1020.6 hPa | 0 mm | - | 0 W/m² | - |
| 1777318860 | 8.89° C | 82% | 1020.6 hPa | 0 mm | - | 0 W/m² | - |
| 1777315862 | 11.11° C | 73% | 1020.5 hPa | 0 mm | - | 4 W/m² | - |
| 1777315259 | 11.67° C | 69% | 1020.4 hPa | 0 mm | - | 10 W/m² | - |
| 1777313460 | 15° C | 53% | 1020.4 hPa | 0 mm | - | 28 W/m² | - |
| 1777311656 | 16.67° C | 38% | 1020.3 hPa | 0 mm | - | 68 W/m² | - |
| 1777309258 | 17.22° C | 43% | 1020.4 hPa | 0 mm | - | 114 W/m² | - |
| 1777307459 | 17.78° C | 40% | 1020.4 hPa | 0 mm | - | 158 W/m² | - |
| 1777304458 | 18.89° C | 35% | 1020.6 hPa | 0 mm | - | 418 W/m² | - |
| 1777298465 | 18.33° C | 39% | 1021.7 hPa | 0 mm | - | 594 W/m² | - |
| 1777296057 | 17.78° C | 39% | 1022 hPa | 0 mm | - | 676 W/m² | - |
| 1777294256 | 17.78° C | 44% | 1022.2 hPa | 0 mm | - | 780 W/m² | - |
| 1777290657 | 16.11° C | 46% | 1022.8 hPa | 0 mm | - | 596 W/m² | - |
| 1777288257 | 15.56° C | 49% | 1023.1 hPa | 0 mm | - | 722 W/m² | - |
| 1777278656 | 10.56° C | 70% | 1024 hPa | 0 mm | - | 424 W/m² | - |
* Rain latest hour (hover to see other rain measurements)
** Current wind speed in m/s (hover to see current wind gust speed)